To NAV CANADA Home Page Login to a new session Search on AWWS site Feedback and Comments Disclaimer Vers la page française équivalente Tips FAQ What's new on the site To the Forecasts and Observations / NOTAM section To "File a Flight Plan" website Publications and other links Update of the User's profile FIC Telephone Numbers My Weather Data Folder Route Weather Data Regional Weather Data Local Weather Data To the Forecasts and Observations / NOTAM section
Request Generated 07/28/2015 at 01:25:18 UTC . Weather information available at that time is displayed.

METAR/TAF

KINDERSLEY/KINDERSLEY REGIONAL/SK    

METAR CYKY 280100Z 03007KT 15SM -SHRA OVC006 15/14 A2988 RMK SC8 TCU
EMBD SLP122 DENSITY ALT 2800FT=
METAR CYKY 280000Z 03010KT 15SM -SHRA OVC006 16/15 A2986 RMK SC8 TCU
EMBD SLP114 DENSITY ALT 2900FT=
METAR CYKY 272300Z 02009KT 15SM BKN006 OVC020TCU 16/15 A2986 RMK
SC6TCU2 TCU ALQDS SLP115 DENSITY ALT 2900FT=

CYKY - No TAF is issued for this station

Your time UTC time
Weather data provided by Environment Canada and NAV CANADA